sensor_id;sensor_type;location;lat;lon;timestamp;temperature;humidity
1686;DHT22;840;47.980;7.830;2024-01-30T00:01:06;6.70;99.90
1686;DHT22;840;47.980;7.830;2024-01-30T00:03:33;6.70;99.90
1686;DHT22;840;47.980;7.830;2024-01-30T00:05:59;6.70;99.90
1686;DHT22;840;47.980;7.830;2024-01-30T00:08:28;6.70;99.90
1686;DHT22;840;47.980;7.830;2024-01-30T00:10:54;6.60;99.90
1686;DHT22;840;47.980;7.830;2024-01-30T00:13:21;6.60;99.90
1686;DHT22;840;47.980;7.830;2024-01-30T00:15:48;6.60;99.90
1686;DHT22;840;47.980;7.830;2024-01-30T00:18:15;6.60;99.90
1686;DHT22;840;47.980;7.830;2024-01-30T00:20:41;6.60;99.90
1686;DHT22;840;47.980;7.830;2024-01-30T00:23:09;6.60;99.90
1686;DHT22;840;47.980;7.830;2024-01-30T00:25:37;6.60;99.90
1686;DHT22;840;47.980;7.830;2024-01-30T00:28:04;6.60;99.90
1686;DHT22;840;47.980;7.830;2024-01-30T00:30:31;6.60;99.90
1686;DHT22;840;47.980;7.830;2024-01-30T00:32:57;6.50;99.90
1686;DHT22;840;47.980;7.830;2024-01-30T00:35:24;6.50;99.90
1686;DHT22;840;47.980;7.830;2024-01-30T00:37:51;6.50;99.90
1686;DHT22;840;47.980;7.830;2024-01-30T00:40:18;6.50;99.90
1686;DHT22;840;47.980;7.830;2024-01-30T00:42:47;6.40;99.90
1686;DHT22;840;47.980;7.830;2024-01-30T00:45:14;6.40;99.90
1686;DHT22;840;47.980;7.830;2024-01-30T00:47:41;6.40;99.90
1686;DHT22;840;47.980;7.830;2024-01-30T00:50:08;6.30;99.90
1686;DHT22;840;47.980;7.830;2024-01-30T00:52:34;6.30;99.90
1686;DHT22;840;47.980;7.830;2024-01-30T00:55:02;6.30;99.90
1686;DHT22;840;47.980;7.830;2024-01-30T00:57:29;6.20;99.90
1686;DHT22;840;47.980;7.830;2024-01-30T00:59:57;6.20;99.90
1686;DHT22;840;47.980;7.830;2024-01-30T01:02:24;6.10;99.90
1686;DHT22;840;47.980;7.830;2024-01-30T01:04:50;6.10;99.90
1686;DHT22;840;47.980;7.830;2024-01-30T01:07:17;6.00;99.90
1686;DHT22;840;47.980;7.830;2024-01-30T01:09:44;6.00;99.90
1686;DHT22;840;47.980;7.830;2024-01-30T01:12:10;6.00;99.90
1686;DHT22;840;47.980;7.830;2024-01-30T01:14:37;6.00;99.90
1686;DHT22;840;47.980;7.830;2024-01-30T01:17:05;6.00;99.90
1686;DHT22;840;47.980;7.830;2024-01-30T01:19:32;6.00;99.90
1686;DHT22;840;47.980;7.830;2024-01-30T01:21:59;6.00;99.90
1686;DHT22;840;47.980;7.830;2024-01-30T01:24:26;6.10;99.90
1686;DHT22;840;47.980;7.830;2024-01-30T01:26:52;6.10;99.90
1686;DHT22;840;47.980;7.830;2024-01-30T01:29:19;6.10;99.90
1686;DHT22;840;47.980;7.830;2024-01-30T01:31:53;6.10;99.90
1686;DHT22;840;47.980;7.830;2024-01-30T01:34:22;6.20;99.90
1686;DHT22;840;47.980;7.830;2024-01-30T01:36:49;6.20;99.90
1686;DHT22;840;47.980;7.830;2024-01-30T01:39:16;6.20;99.90
1686;DHT22;840;47.980;7.830;2024-01-30T01:41:43;6.20;99.90
1686;DHT22;840;47.980;7.830;2024-01-30T01:44:10;6.20;99.90
1686;DHT22;840;47.980;7.830;2024-01-30T01:46:37;6.20;99.90
1686;DHT22;840;47.980;7.830;2024-01-30T01:49:05;6.10;99.90
1686;DHT22;840;47.980;7.830;2024-01-30T01:51:35;6.10;99.90
1686;DHT22;840;47.980;7.830;2024-01-30T01:54:04;6.10;99.90
1686;DHT22;840;47.980;7.830;2024-01-30T01:56:31;6.10;99.90
1686;DHT22;840;47.980;7.830;2024-01-30T01:59:00;6.10;99.90
1686;DHT22;840;47.980;7.830;2024-01-30T02:01:31;6.10;99.90
1686;DHT22;840;47.980;7.830;2024-01-30T02:03:58;6.10;99.90
1686;DHT22;840;47.980;7.830;2024-01-30T02:06:25;6.10;99.90
1686;DHT22;840;47.980;7.830;2024-01-30T02:08:54;6.10;99.90
1686;DHT22;840;47.980;7.830;2024-01-30T02:11:22;6.20;99.90
1686;DHT22;840;47.980;7.830;2024-01-30T02:13:54;6.20;99.90
1686;DHT22;840;47.980;7.830;2024-01-30T02:16:21;6.20;99.90
1686;DHT22;840;47.980;7.830;2024-01-30T02:18:47;6.20;99.90
1686;DHT22;840;47.980;7.830;2024-01-30T02:21:16;6.30;99.90
1686;DHT22;840;47.980;7.830;2024-01-30T02:23:44;6.30;99.90
1686;DHT22;840;47.980;7.830;2024-01-30T02:26:13;6.30;99.90
1686;DHT22;840;47.980;7.830;2024-01-30T02:28:39;6.30;99.90
1686;DHT22;840;47.980;7.830;2024-01-30T02:31:06;6.30;99.90
1686;DHT22;840;47.980;7.830;2024-01-30T02:33:33;6.20;99.90
1686;DHT22;840;47.980;7.830;2024-01-30T02:35:59;6.20;99.90
1686;DHT22;840;47.980;7.830;2024-01-30T02:38:28;6.20;99.90
1686;DHT22;840;47.980;7.830;2024-01-30T02:40:55;6.20;99.90
1686;DHT22;840;47.980;7.830;2024-01-30T02:43:22;6.20;99.90
1686;DHT22;840;47.980;7.830;2024-01-30T02:45:49;6.10;99.90
1686;DHT22;840;47.980;7.830;2024-01-30T02:48:16;6.10;99.90
1686;DHT22;840;47.980;7.830;2024-01-30T02:50:43;6.10;99.90
1686;DHT22;840;47.980;7.830;2024-01-30T02:53:09;6.00;99.90
1686;DHT22;840;47.980;7.830;2024-01-30T02:55:37;6.00;99.90
1686;DHT22;840;47.980;7.830;2024-01-30T02:58:04;5.90;99.90
1686;DHT22;840;47.980;7.830;2024-01-30T03:00:31;5.90;99.90
1686;DHT22;840;47.980;7.830;2024-01-30T03:02:58;5.80;99.90
1686;DHT22;840;47.980;7.830;2024-01-30T03:05:24;5.80;99.90
1686;DHT22;840;47.980;7.830;2024-01-30T03:07:51;5.80;99.90
1686;DHT22;840;47.980;7.830;2024-01-30T03:10:18;5.80;99.90
1686;DHT22;840;47.980;7.830;2024-01-30T03:12:46;5.90;99.90
1686;DHT22;840;47.980;7.830;2024-01-30T03:15:13;5.80;99.90
1686;DHT22;840;47.980;7.830;2024-01-30T03:17:40;5.90;99.90
1686;DHT22;840;47.980;7.830;2024-01-30T03:20:08;5.80;99.90
1686;DHT22;840;47.980;7.830;2024-01-30T03:22:35;5.80;99.90
1686;DHT22;840;47.980;7.830;2024-01-30T03:25:02;5.80;99.90
1686;DHT22;840;47.980;7.830;2024-01-30T03:27:29;5.80;99.90
1686;DHT22;840;47.980;7.830;2024-01-30T03:29:57;5.80;99.90
1686;DHT22;840;47.980;7.830;2024-01-30T03:32:24;5.80;99.90
1686;DHT22;840;47.980;7.830;2024-01-30T03:34:51;5.70;99.90
1686;DHT22;840;47.980;7.830;2024-01-30T03:37:17;5.70;99.90
1686;DHT22;840;47.980;7.830;2024-01-30T03:39:44;5.70;99.90
1686;DHT22;840;47.980;7.830;2024-01-30T03:42:11;5.70;99.90
1686;DHT22;840;47.980;7.830;2024-01-30T03:44:37;5.70;99.90
1686;DHT22;840;47.980;7.830;2024-01-30T03:47:05;5.60;99.90
1686;DHT22;840;47.980;7.830;2024-01-30T03:49:32;5.60;99.90
1686;DHT22;840;47.980;7.830;2024-01-30T03:51:59;5.60;99.90
1686;DHT22;840;47.980;7.830;2024-01-30T03:54:25;5.60;99.90
1686;DHT22;840;47.980;7.830;2024-01-30T03:56:52;5.60;99.90
1686;DHT22;840;47.980;7.830;2024-01-30T03:59:19;5.60;99.90
1686;DHT22;840;47.980;7.830;2024-01-30T04:01:49;5.60;99.90
1686;DHT22;840;47.980;7.830;2024-01-30T04:04:17;5.60;99.90
1686;DHT22;840;47.980;7.830;2024-01-30T04:06:44;5.60;99.90
1686;DHT22;840;47.980;7.830;2024-01-30T04:09:11;5.70;99.90
1686;DHT22;840;47.980;7.830;2024-01-30T04:11:38;5.70;99.90
1686;DHT22;840;47.980;7.830;2024-01-30T04:14:05;5.80;99.90
1686;DHT22;840;47.980;7.830;2024-01-30T04:16:32;6.00;99.90
1686;DHT22;840;47.980;7.830;2024-01-30T04:18:58;6.20;99.90
1686;DHT22;840;47.980;7.830;2024-01-30T04:21:26;6.30;99.90
1686;DHT22;840;47.980;7.830;2024-01-30T04:23:53;6.50;99.90
1686;DHT22;840;47.980;7.830;2024-01-30T04:26:20;6.70;99.90
1686;DHT22;840;47.980;7.830;2024-01-30T04:28:47;6.90;99.90
1686;DHT22;840;47.980;7.830;2024-01-30T04:31:13;7.00;99.90
1686;DHT22;840;47.980;7.830;2024-01-30T04:33:40;7.00;99.90
1686;DHT22;840;47.980;7.830;2024-01-30T04:36:08;7.10;99.90
1686;DHT22;840;47.980;7.830;2024-01-30T04:38:37;7.20;99.90
1686;DHT22;840;47.980;7.830;2024-01-30T04:41:04;7.20;99.90
1686;DHT22;840;47.980;7.830;2024-01-30T04:43:31;7.30;99.90
1686;DHT22;840;47.980;7.830;2024-01-30T04:45:57;7.30;99.90
1686;DHT22;840;47.980;7.830;2024-01-30T04:48:24;7.40;99.90
1686;DHT22;840;47.980;7.830;2024-01-30T04:50:51;7.40;99.90
1686;DHT22;840;47.980;7.830;2024-01-30T04:53:17;7.50;99.90
1686;DHT22;840;47.980;7.830;2024-01-30T04:55:46;7.50;99.90
1686;DHT22;840;47.980;7.830;2024-01-30T04:58:12;7.60;99.90
1686;DHT22;840;47.980;7.830;2024-01-30T05:00:39;7.60;99.90
1686;DHT22;840;47.980;7.830;2024-01-30T05:03:06;7.70;99.90
1686;DHT22;840;47.980;7.830;2024-01-30T05:05:33;7.80;99.90
1686;DHT22;840;47.980;7.830;2024-01-30T05:07:59;7.80;99.90
1686;DHT22;840;47.980;7.830;2024-01-30T05:10:26;7.90;99.90
1686;DHT22;840;47.980;7.830;2024-01-30T05:12:55;8.00;99.90
1686;DHT22;840;47.980;7.830;2024-01-30T05:15:22;8.10;99.90
1686;DHT22;840;47.980;7.830;2024-01-30T05:17:48;8.10;99.90
1686;DHT22;840;47.980;7.830;2024-01-30T05:20:16;8.20;99.90
1686;DHT22;840;47.980;7.830;2024-01-30T05:22:43;8.20;99.90
1686;DHT22;840;47.980;7.830;2024-01-30T05:25:11;8.20;99.90
1686;DHT22;840;47.980;7.830;2024-01-30T05:27:38;8.30;99.90
1686;DHT22;840;47.980;7.830;2024-01-30T05:30:07;8.30;99.90
1686;DHT22;840;47.980;7.830;2024-01-30T05:32:34;8.30;99.90
1686;DHT22;840;47.980;7.830;2024-01-30T05:35:01;8.30;99.90
1686;DHT22;840;47.980;7.830;2024-01-30T05:37:27;8.40;99.90
1686;DHT22;840;47.980;7.830;2024-01-30T05:39:54;8.50;99.90
1686;DHT22;840;47.980;7.830;2024-01-30T05:42:20;8.50;99.90
1686;DHT22;840;47.980;7.830;2024-01-30T05:44:47;8.50;99.90
1686;DHT22;840;47.980;7.830;2024-01-30T05:47:15;8.60;99.90
1686;DHT22;840;47.980;7.830;2024-01-30T05:49:42;8.70;99.90
1686;DHT22;840;47.980;7.830;2024-01-30T05:52:09;8.70;99.90
1686;DHT22;840;47.980;7.830;2024-01-30T05:54:35;8.70;99.90
1686;DHT22;840;47.980;7.830;2024-01-30T05:57:03;8.70;99.90
1686;DHT22;840;47.980;7.830;2024-01-30T05:59:29;8.70;99.90
1686;DHT22;840;47.980;7.830;2024-01-30T06:01:56;8.70;99.90
1686;DHT22;840;47.980;7.830;2024-01-30T06:04:24;8.70;99.90
1686;DHT22;840;47.980;7.830;2024-01-30T06:06:51;8.70;99.90
1686;DHT22;840;47.980;7.830;2024-01-30T06:09:17;8.70;99.90
1686;DHT22;840;47.980;7.830;2024-01-30T06:11:45;8.70;99.90
1686;DHT22;840;47.980;7.830;2024-01-30T06:14:12;8.70;99.90
1686;DHT22;840;47.980;7.830;2024-01-30T06:16:38;8.70;99.90
1686;DHT22;840;47.980;7.830;2024-01-30T06:19:05;8.70;99.90
1686;DHT22;840;47.980;7.830;2024-01-30T06:21:33;8.70;99.90
1686;DHT22;840;47.980;7.830;2024-01-30T06:24:02;8.70;99.90
1686;DHT22;840;47.980;7.830;2024-01-30T06:26:29;8.70;99.90
1686;DHT22;840;47.980;7.830;2024-01-30T06:28:55;8.70;99.90
1686;DHT22;840;47.980;7.830;2024-01-30T06:31:22;8.70;99.90
1686;DHT22;840;47.980;7.830;2024-01-30T06:33:49;8.60;99.90
1686;DHT22;840;47.980;7.830;2024-01-30T06:36:16;8.60;99.90
1686;DHT22;840;47.980;7.830;2024-01-30T06:38:44;8.60;99.90
1686;DHT22;840;47.980;7.830;2024-01-30T06:41:11;8.60;99.90
1686;DHT22;840;47.980;7.830;2024-01-30T06:43:37;8.60;99.90
1686;DHT22;840;47.980;7.830;2024-01-30T06:46:04;8.60;99.90
1686;DHT22;840;47.980;7.830;2024-01-30T06:48:31;8.60;99.90
1686;DHT22;840;47.980;7.830;2024-01-30T06:50:58;8.50;99.90
1686;DHT22;840;47.980;7.830;2024-01-30T06:53:25;8.60;99.90
1686;DHT22;840;47.980;7.830;2024-01-30T06:55:53;8.60;99.90
1686;DHT22;840;47.980;7.830;2024-01-30T06:58:20;8.60;99.90
1686;DHT22;840;47.980;7.830;2024-01-30T07:00:47;8.60;99.90
1686;DHT22;840;47.980;7.830;2024-01-30T07:03:13;8.60;99.90
1686;DHT22;840;47.980;7.830;2024-01-30T07:05:40;8.70;99.90
1686;DHT22;840;47.980;7.830;2024-01-30T07:08:07;8.60;99.90
1686;DHT22;840;47.980;7.830;2024-01-30T07:10:34;8.70;99.90
1686;DHT22;840;47.980;7.830;2024-01-30T07:13:02;8.70;99.90
1686;DHT22;840;47.980;7.830;2024-01-30T07:15:29;8.70;99.90
1686;DHT22;840;47.980;7.830;2024-01-30T07:17:56;8.70;99.90
1686;DHT22;840;47.980;7.830;2024-01-30T07:20:23;8.70;99.90
1686;DHT22;840;47.980;7.830;2024-01-30T07:22:49;8.70;99.90
1686;DHT22;840;47.980;7.830;2024-01-30T07:25:17;8.70;99.90
1686;DHT22;840;47.980;7.830;2024-01-30T07:27:43;8.80;99.90
1686;DHT22;840;47.980;7.830;2024-01-30T07:30:12;8.80;99.90
1686;DHT22;840;47.980;7.830;2024-01-30T07:32:39;8.80;99.90
1686;DHT22;840;47.980;7.830;2024-01-30T07:35:06;8.80;99.90
1686;DHT22;840;47.980;7.830;2024-01-30T07:37:33;8.80;99.90
1686;DHT22;840;47.980;7.830;2024-01-30T07:40:01;8.90;99.90
1686;DHT22;840;47.980;7.830;2024-01-30T07:42:28;8.90;99.90
1686;DHT22;840;47.980;7.830;2024-01-30T07:44:55;8.90;99.90
1686;DHT22;840;47.980;7.830;2024-01-30T07:47:23;8.90;99.90
1686;DHT22;840;47.980;7.830;2024-01-30T07:49:50;9.00;99.90
1686;DHT22;840;47.980;7.830;2024-01-30T07:52:17;9.00;99.90
1686;DHT22;840;47.980;7.830;2024-01-30T07:54:44;9.00;99.90
1686;DHT22;840;47.980;7.830;2024-01-30T07:57:10;9.10;99.90
1686;DHT22;840;47.980;7.830;2024-01-30T07:59:37;9.10;99.90
1686;DHT22;840;47.980;7.830;2024-01-30T08:02:04;9.20;99.90
1686;DHT22;840;47.980;7.830;2024-01-30T08:04:32;9.20;99.90
1686;DHT22;840;47.980;7.830;2024-01-30T08:06:59;9.30;99.90
1686;DHT22;840;47.980;7.830;2024-01-30T08:09:25;9.40;99.90
1686;DHT22;840;47.980;7.830;2024-01-30T08:11:52;9.40;99.90
1686;DHT22;840;47.980;7.830;2024-01-30T08:14:19;9.50;99.90
1686;DHT22;840;47.980;7.830;2024-01-30T08:16:45;9.50;99.90
1686;DHT22;840;47.980;7.830;2024-01-30T08:19:13;9.60;99.90
1686;DHT22;840;47.980;7.830;2024-01-30T08:21:42;9.60;99.90
1686;DHT22;840;47.980;7.830;2024-01-30T08:24:09;9.70;99.90
1686;DHT22;840;47.980;7.830;2024-01-30T08:26:35;9.70;99.90
1686;DHT22;840;47.980;7.830;2024-01-30T08:29:02;9.80;99.90
1686;DHT22;840;47.980;7.830;2024-01-30T08:31:29;9.90;99.90
1686;DHT22;840;47.980;7.830;2024-01-30T08:33:56;10.00;99.90
1686;DHT22;840;47.980;7.830;2024-01-30T08:36:22;10.00;99.90
1686;DHT22;840;47.980;7.830;2024-01-30T08:38:51;10.10;99.90
1686;DHT22;840;47.980;7.830;2024-01-30T08:41:17;10.10;99.90
1686;DHT22;840;47.980;7.830;2024-01-30T08:43:44;10.20;99.90
1686;DHT22;840;47.980;7.830;2024-01-30T08:46:11;10.30;99.90
1686;DHT22;840;47.980;7.830;2024-01-30T08:48:38;10.30;99.90
1686;DHT22;840;47.980;7.830;2024-01-30T08:51:05;10.40;99.90
1686;DHT22;840;47.980;7.830;2024-01-30T08:53:34;10.40;99.90
1686;DHT22;840;47.980;7.830;2024-01-30T08:56:03;10.50;99.90
1686;DHT22;840;47.980;7.830;2024-01-30T08:58:30;10.50;99.90
1686;DHT22;840;47.980;7.830;2024-01-30T09:00:57;10.60;99.90
1686;DHT22;840;47.980;7.830;2024-01-30T09:03:23;10.70;99.90
1686;DHT22;840;47.980;7.830;2024-01-30T09:05:50;10.70;99.90
1686;DHT22;840;47.980;7.830;2024-01-30T09:08:17;10.90;99.90
1686;DHT22;840;47.980;7.830;2024-01-30T09:10:44;11.00;99.90
1686;DHT22;840;47.980;7.830;2024-01-30T09:13:12;11.10;99.90
1686;DHT22;840;47.980;7.830;2024-01-30T09:15:39;11.10;99.90
1686;DHT22;840;47.980;7.830;2024-01-30T09:18:06;11.20;99.90
1686;DHT22;840;47.980;7.830;2024-01-30T09:20:33;11.20;99.90
1686;DHT22;840;47.980;7.830;2024-01-30T09:23:00;11.30;99.90
1686;DHT22;840;47.980;7.830;2024-01-30T09:25:26;11.30;99.90
1686;DHT22;840;47.980;7.830;2024-01-30T09:27:53;11.40;99.90
1686;DHT22;840;47.980;7.830;2024-01-30T09:30:21;11.50;99.90
1686;DHT22;840;47.980;7.830;2024-01-30T09:32:48;11.60;99.90
1686;DHT22;840;47.980;7.830;2024-01-30T09:35:14;11.60;99.90
1686;DHT22;840;47.980;7.830;2024-01-30T09:37:41;11.60;99.90
1686;DHT22;840;47.980;7.830;2024-01-30T09:40:08;11.60;99.90
1686;DHT22;840;47.980;7.830;2024-01-30T09:42:36;11.70;99.90
1686;DHT22;840;47.980;7.830;2024-01-30T09:45:04;11.70;99.90
1686;DHT22;840;47.980;7.830;2024-01-30T09:47:33;11.70;99.90
1686;DHT22;840;47.980;7.830;2024-01-30T09:50:07;11.70;99.90
1686;DHT22;840;47.980;7.830;2024-01-30T09:52:33;11.80;99.90
1686;DHT22;840;47.980;7.830;2024-01-30T09:55:00;11.80;99.90
1686;DHT22;840;47.980;7.830;2024-01-30T09:57:28;11.80;99.90
1686;DHT22;840;47.980;7.830;2024-01-30T09:59:54;11.80;99.90
1686;DHT22;840;47.980;7.830;2024-01-30T10:02:21;11.80;99.90
1686;DHT22;840;47.980;7.830;2024-01-30T10:04:50;11.90;99.90
1686;DHT22;840;47.980;7.830;2024-01-30T10:07:17;12.00;99.90
1686;DHT22;840;47.980;7.830;2024-01-30T10:09:44;12.00;99.90
1686;DHT22;840;47.980;7.830;2024-01-30T10:12:11;12.00;99.90
1686;DHT22;840;47.980;7.830;2024-01-30T10:14:38;12.00;99.90
1686;DHT22;840;47.980;7.830;2024-01-30T10:17:06;12.00;99.90
1686;DHT22;840;47.980;7.830;2024-01-30T10:19:33;12.10;99.90
1686;DHT22;840;47.980;7.830;2024-01-30T10:22:02;12.10;99.90
1686;DHT22;840;47.980;7.830;2024-01-30T10:24:29;12.10;99.90
1686;DHT22;840;47.980;7.830;2024-01-30T10:26:55;12.10;99.90
1686;DHT22;840;47.980;7.830;2024-01-30T10:29:22;12.10;99.90
1686;DHT22;840;47.980;7.830;2024-01-30T10:31:58;12.10;99.90
1686;DHT22;840;47.980;7.830;2024-01-30T10:34:25;12.10;99.90
1686;DHT22;840;47.980;7.830;2024-01-30T10:36:59;12.20;99.90
1686;DHT22;840;47.980;7.830;2024-01-30T10:39:28;12.20;99.90
1686;DHT22;840;47.980;7.830;2024-01-30T10:41:56;12.20;99.90
1686;DHT22;840;47.980;7.830;2024-01-30T10:44:28;12.30;99.90
1686;DHT22;840;47.980;7.830;2024-01-30T10:47:00;12.40;99.90
1686;DHT22;840;47.980;7.830;2024-01-30T10:49:30;12.40;98.90
1686;DHT22;840;47.980;7.830;2024-01-30T10:51:57;12.40;98.50
1686;DHT22;840;47.980;7.830;2024-01-30T10:54:26;12.40;97.60
1686;DHT22;840;47.980;7.830;2024-01-30T10:56:54;12.50;98.90
1686;DHT22;840;47.980;7.830;2024-01-30T10:59:23;12.50;98.80
1686;DHT22;840;47.980;7.830;2024-01-30T11:01:50;12.50;97.40
1686;DHT22;840;47.980;7.830;2024-01-30T11:04:17;12.50;97.70
1686;DHT22;840;47.980;7.830;2024-01-30T11:06:44;12.50;96.80
1686;DHT22;840;47.980;7.830;2024-01-30T11:09:11;12.50;97.80
1686;DHT22;840;47.980;7.830;2024-01-30T11:11:50;12.60;98.00
1686;DHT22;840;47.980;7.830;2024-01-30T11:14:23;12.70;98.60
1686;DHT22;840;47.980;7.830;2024-01-30T11:16:50;12.80;98.90
1686;DHT22;840;47.980;7.830;2024-01-30T11:19:22;12.80;98.90
1686;DHT22;840;47.980;7.830;2024-01-30T11:21:50;12.90;98.30
1686;DHT22;840;47.980;7.830;2024-01-30T11:24:19;12.90;98.50
1686;DHT22;840;47.980;7.830;2024-01-30T11:26:49;13.00;97.40
1686;DHT22;840;47.980;7.830;2024-01-30T11:29:17;13.00;97.50
1686;DHT22;840;47.980;7.830;2024-01-30T11:31:52;13.10;97.40
1686;DHT22;840;47.980;7.830;2024-01-30T11:34:19;13.10;96.80
1686;DHT22;840;47.980;7.830;2024-01-30T11:36:51;13.20;97.20
1686;DHT22;840;47.980;7.830;2024-01-30T11:39:20;13.30;97.50
1686;DHT22;840;47.980;7.830;2024-01-30T11:41:49;13.30;97.40
1686;DHT22;840;47.980;7.830;2024-01-30T11:44:17;13.20;97.70
1686;DHT22;840;47.980;7.830;2024-01-30T11:46:45;13.30;97.70
1686;DHT22;840;47.980;7.830;2024-01-30T11:49:12;13.40;98.50
1686;DHT22;840;47.980;7.830;2024-01-30T11:51:39;13.40;98.20
1686;DHT22;840;47.980;7.830;2024-01-30T11:54:07;13.40;98.60
1686;DHT22;840;47.980;7.830;2024-01-30T11:56:34;13.50;98.30
1686;DHT22;840;47.980;7.830;2024-01-30T11:59:02;13.50;98.00
1686;DHT22;840;47.980;7.830;2024-01-30T12:01:29;13.60;98.20
1686;DHT22;840;47.980;7.830;2024-01-30T12:03:57;13.60;98.30
1686;DHT22;840;47.980;7.830;2024-01-30T12:06:23;13.70;98.40
1686;DHT22;840;47.980;7.830;2024-01-30T12:09:00;13.70;98.80
1686;DHT22;840;47.980;7.830;2024-01-30T12:11:29;13.80;99.00
1686;DHT22;840;47.980;7.830;2024-01-30T12:13:56;13.90;99.00
1686;DHT22;840;47.980;7.830;2024-01-30T12:16:25;13.90;99.10
1686;DHT22;840;47.980;7.830;2024-01-30T12:18:59;14.00;99.70
1686;DHT22;840;47.980;7.830;2024-01-30T12:21:26;14.00;99.90
1686;DHT22;840;47.980;7.830;2024-01-30T12:23:53;14.00;99.90
1686;DHT22;840;47.980;7.830;2024-01-30T12:26:20;13.90;99.90
1686;DHT22;840;47.980;7.830;2024-01-30T12:28:50;13.90;99.90
1686;DHT22;840;47.980;7.830;2024-01-30T12:31:17;13.80;99.90
1686;DHT22;840;47.980;7.830;2024-01-30T12:33:49;13.80;99.90
1686;DHT22;840;47.980;7.830;2024-01-30T12:36:16;13.80;99.90
1686;DHT22;840;47.980;7.830;2024-01-30T12:38:43;13.80;99.90
1686;DHT22;840;47.980;7.830;2024-01-30T12:41:10;13.80;99.90
1686;DHT22;840;47.980;7.830;2024-01-30T12:43:37;13.70;99.90
1686;DHT22;840;47.980;7.830;2024-01-30T12:46:04;13.80;99.90
1686;DHT22;840;47.980;7.830;2024-01-30T12:48:31;13.80;99.90
1686;DHT22;840;47.980;7.830;2024-01-30T12:50:59;13.80;99.90
1686;DHT22;840;47.980;7.830;2024-01-30T12:53:26;13.80;99.90
1686;DHT22;840;47.980;7.830;2024-01-30T12:55:53;13.80;99.90
1686;DHT22;840;47.980;7.830;2024-01-30T12:58:20;13.90;99.90
1686;DHT22;840;47.980;7.830;2024-01-30T13:00:47;14.00;99.90
1686;DHT22;840;47.980;7.830;2024-01-30T13:03:14;14.00;99.90
1686;DHT22;840;47.980;7.830;2024-01-30T13:05:40;14.10;99.90
1686;DHT22;840;47.980;7.830;2024-01-30T13:08:09;14.10;99.90
1686;DHT22;840;47.980;7.830;2024-01-30T13:10:35;14.20;99.90
1686;DHT22;840;47.980;7.830;2024-01-30T13:13:02;14.30;99.90
1686;DHT22;840;47.980;7.830;2024-01-30T13:15:29;14.30;99.90
1686;DHT22;840;47.980;7.830;2024-01-30T13:17:55;14.30;99.90
1686;DHT22;840;47.980;7.830;2024-01-30T13:20:22;14.30;99.90
1686;DHT22;840;47.980;7.830;2024-01-30T13:22:49;14.30;99.90
1686;DHT22;840;47.980;7.830;2024-01-30T13:25:17;14.30;99.90
1686;DHT22;840;47.980;7.830;2024-01-30T13:27:44;14.30;99.90
1686;DHT22;840;47.980;7.830;2024-01-30T13:30:11;14.30;99.90
1686;DHT22;840;47.980;7.830;2024-01-30T13:32:38;14.30;99.90
1686;DHT22;840;47.980;7.830;2024-01-30T13:35:06;14.40;99.90
1686;DHT22;840;47.980;7.830;2024-01-30T13:37:33;14.40;99.90
1686;DHT22;840;47.980;7.830;2024-01-30T13:40:00;14.40;99.90
1686;DHT22;840;47.980;7.830;2024-01-30T13:42:28;14.40;99.90
1686;DHT22;840;47.980;7.830;2024-01-30T13:44:55;14.40;99.90
1686;DHT22;840;47.980;7.830;2024-01-30T13:47:22;14.40;99.90
1686;DHT22;840;47.980;7.830;2024-01-30T13:49:49;14.40;99.90
1686;DHT22;840;47.980;7.830;2024-01-30T13:52:15;14.40;99.90
1686;DHT22;840;47.980;7.830;2024-01-30T13:54:42;14.40;99.90
1686;DHT22;840;47.980;7.830;2024-01-30T13:57:09;14.40;99.90
1686;DHT22;840;47.980;7.830;2024-01-30T13:59:38;14.40;99.90
1686;DHT22;840;47.980;7.830;2024-01-30T14:02:05;14.40;99.90
1686;DHT22;840;47.980;7.830;2024-01-30T14:04:33;14.40;99.90
1686;DHT22;840;47.980;7.830;2024-01-30T14:07:02;14.30;99.90
1686;DHT22;840;47.980;7.830;2024-01-30T14:09:29;14.30;99.90
1686;DHT22;840;47.980;7.830;2024-01-30T14:11:57;14.30;99.90
1686;DHT22;840;47.980;7.830;2024-01-30T14:14:24;14.30;99.90
1686;DHT22;840;47.980;7.830;2024-01-30T14:16:53;14.30;99.90
1686;DHT22;840;47.980;7.830;2024-01-30T14:19:19;14.20;99.90
1686;DHT22;840;47.980;7.830;2024-01-30T14:21:46;14.10;99.90
1686;DHT22;840;47.980;7.830;2024-01-30T14:24:13;14.00;99.90
1686;DHT22;840;47.980;7.830;2024-01-30T14:26:40;13.90;99.90
1686;DHT22;840;47.980;7.830;2024-01-30T14:29:06;13.80;99.90
1686;DHT22;840;47.980;7.830;2024-01-30T14:31:33;13.80;99.90
1686;DHT22;840;47.980;7.830;2024-01-30T14:34:01;13.80;99.90
1686;DHT22;840;47.980;7.830;2024-01-30T14:36:28;13.70;99.90
1686;DHT22;840;47.980;7.830;2024-01-30T14:38:55;13.70;99.90
1686;DHT22;840;47.980;7.830;2024-01-30T14:41:22;13.60;99.90
1686;DHT22;840;47.980;7.830;2024-01-30T14:43:48;13.50;99.90
1686;DHT22;840;47.980;7.830;2024-01-30T14:46:15;13.50;99.90
1686;DHT22;840;47.980;7.830;2024-01-30T14:48:42;13.40;99.90
1686;DHT22;840;47.980;7.830;2024-01-30T14:51:11;13.40;99.90
1686;DHT22;840;47.980;7.830;2024-01-30T14:53:37;13.40;99.90
1686;DHT22;840;47.980;7.830;2024-01-30T14:56:05;13.40;99.90
1686;DHT22;840;47.980;7.830;2024-01-30T14:58:32;13.40;99.90
1686;DHT22;840;47.980;7.830;2024-01-30T15:00:59;13.40;99.90
1686;DHT22;840;47.980;7.830;2024-01-30T15:03:27;13.40;99.90
1686;DHT22;840;47.980;7.830;2024-01-30T15:05:53;13.40;99.90
1686;DHT22;840;47.980;7.830;2024-01-30T15:08:22;13.50;99.90
1686;DHT22;840;47.980;7.830;2024-01-30T15:10:49;13.50;99.90
1686;DHT22;840;47.980;7.830;2024-01-30T15:13:16;13.60;99.90
1686;DHT22;840;47.980;7.830;2024-01-30T15:15:43;13.60;99.90
1686;DHT22;840;47.980;7.830;2024-01-30T15:18:10;13.70;99.90
1686;DHT22;840;47.980;7.830;2024-01-30T15:20:36;13.70;99.90
1686;DHT22;840;47.980;7.830;2024-01-30T15:23:03;13.70;99.90
1686;DHT22;840;47.980;7.830;2024-01-30T15:25:31;13.70;99.90
1686;DHT22;840;47.980;7.830;2024-01-30T15:27:58;13.70;99.90
1686;DHT22;840;47.980;7.830;2024-01-30T15:30:25;13.70;99.90
1686;DHT22;840;47.980;7.830;2024-01-30T15:32:52;13.70;99.90
1686;DHT22;840;47.980;7.830;2024-01-30T15:35:19;13.70;99.90
1686;DHT22;840;47.980;7.830;2024-01-30T15:37:45;13.70;99.90
1686;DHT22;840;47.980;7.830;2024-01-30T15:40:12;13.70;99.90
1686;DHT22;840;47.980;7.830;2024-01-30T15:42:40;13.80;99.90
1686;DHT22;840;47.980;7.830;2024-01-30T15:45:07;13.70;99.90
1686;DHT22;840;47.980;7.830;2024-01-30T15:47:34;13.70;99.90
1686;DHT22;840;47.980;7.830;2024-01-30T15:50:02;13.60;99.90
1686;DHT22;840;47.980;7.830;2024-01-30T15:52:29;13.60;99.90
1686;DHT22;840;47.980;7.830;2024-01-30T15:54:55;13.50;99.90
1686;DHT22;840;47.980;7.830;2024-01-30T15:57:22;13.50;99.90
1686;DHT22;840;47.980;7.830;2024-01-30T15:59:51;13.50;99.90
1686;DHT22;840;47.980;7.830;2024-01-30T16:02:17;13.40;99.90
1686;DHT22;840;47.980;7.830;2024-01-30T16:04:45;13.40;99.90
1686;DHT22;840;47.980;7.830;2024-01-30T16:07:12;13.30;99.90
1686;DHT22;840;47.980;7.830;2024-01-30T16:09:39;13.30;99.90
1686;DHT22;840;47.980;7.830;2024-01-30T16:12:06;13.30;99.90
1686;DHT22;840;47.980;7.830;2024-01-30T16:14:33;13.20;99.90
1686;DHT22;840;47.980;7.830;2024-01-30T16:17:03;13.10;99.90
1686;DHT22;840;47.980;7.830;2024-01-30T16:19:30;13.00;99.90
1686;DHT22;840;47.980;7.830;2024-01-30T16:21:58;13.00;99.90
1686;DHT22;840;47.980;7.830;2024-01-30T16:24:25;12.90;99.90
1686;DHT22;840;47.980;7.830;2024-01-30T16:26:51;12.90;99.90